logo dgac
Martes 21 de Septiembre del 2021
Buscar por aerodromo o helipuerto
Ingrese nombre de aeródromo, localidad o designador OACI:

Aeródromo: Guardiamarina Zañartu (PUB) (SCGZ)

Ubicación: Puerto Williams, XII Región, Chile (54º 55' 52'' S, 67º 37' 34'' W) Ver ubicación en el mapa

Pistas

Orientación Dimensión Pendiente Superficie Resistencia APCH THR RWY PAPI
08/26 1440 x 29 -1,50 ASPH PCN 33 F/A/X/T No No
Horas de operación HJ
Elevación 27 m / 88 ft
Otra Información Adm : D.G.A.C.
Uso : PUB

TEL JEFATURA (56-61) 2745513
ARO (56-61) 2745514
email : aro.williams@dgac.gob.cl


Otra información ver AIP-Chile Volumen I AD 3.9-15.11-P y VAC/RET

CCCM/FCCV Descargar
andera de Chile
Mapa de Guardiamarina Zañartu (PUB) (SCGZ)

Último METAR

METAR SCGZ 210000Z NIL

Último TAF

TAF SCGZ 211000Z 2112/2200 32005KT 9000 SCT035 TN07/2112Z TX12/2118Z PROB40 TEMPO 2112/2114 8000 -RA BKN040

Últimas fotos cámaras

Imagen aerodromo Guardiamarina Zañartu (PUB) (SCGZ) Este tomada el 21-09-2021 11:20:53 Imagen aerodromo Guardiamarina Zañartu (PUB) (SCGZ) Oeste tomada el 21-09-2021 11:21:08

Último NOTAM

B1358/21 NOTAMN Q)SCCZ/QNMAS/IV/BO/AE/000/999/5456S06737W025 A)SCGZ B)2109211830 C)2109211930 E)DVOR/DME PWL FREQ 114.9MHZ / CH96X U/S DUE TO MAINT